createdAt,value
2018-02-09T00:01:08.460Z,0
2018-02-09T00:02:18.413Z,0
2018-02-09T00:03:28.108Z,0
2018-02-09T00:04:38.057Z,0
2018-02-09T00:05:48.049Z,0
2018-02-09T00:06:57.984Z,0
2018-02-09T00:08:07.663Z,0
2018-02-09T00:09:17.610Z,0
2018-02-09T00:10:27.316Z,0
2018-02-09T00:11:37.250Z,0
2018-02-09T00:12:46.947Z,0
2018-02-09T00:13:56.382Z,0
2018-02-09T00:15:06.326Z,0
2018-02-09T00:16:16.266Z,0
2018-02-09T00:17:25.954Z,0
2018-02-09T00:18:35.899Z,0
2018-02-09T00:19:45.843Z,0
2018-02-09T00:20:55.529Z,0
2018-02-09T00:22:05.489Z,0
2018-02-09T00:23:15.436Z,0
2018-02-09T00:24:25.382Z,0
2018-02-09T00:25:35.333Z,0
2018-02-09T00:26:45.272Z,0
2018-02-09T00:27:54.956Z,0
2018-02-09T00:29:04.642Z,0
2018-02-09T00:30:14.584Z,0
2018-02-09T00:31:24.267Z,0
2018-02-09T00:32:34.217Z,0
2018-02-09T00:33:44.181Z,0
2018-02-09T00:34:54.120Z,0
2018-02-09T00:36:04.077Z,0
2018-02-09T00:37:13.771Z,0
2018-02-09T00:38:23.714Z,0
2018-02-09T00:39:33.409Z,0
2018-02-09T00:40:43.437Z,0
2018-02-09T00:41:53.385Z,0
2018-02-09T00:43:03.321Z,0
2018-02-09T00:44:13.004Z,0
2018-02-09T00:45:22.684Z,0
2018-02-09T00:46:32.384Z,0
2018-02-09T00:47:42.323Z,0
2018-02-09T00:48:52.260Z,0
2018-02-09T00:50:01.942Z,0
2018-02-09T00:51:11.931Z,0
2018-02-09T00:52:21.874Z,0
2018-02-09T00:53:31.565Z,0
2018-02-09T00:54:41.506Z,0
2018-02-09T00:55:51.437Z,0
2018-02-09T00:57:01.632Z,0
2018-02-09T00:58:11.573Z,0
2018-02-09T00:59:21.622Z,0
2018-02-09T01:00:31.562Z,0
2018-02-09T01:01:41.515Z,0
2018-02-09T01:02:51.459Z,0
2018-02-09T01:04:01.139Z,0
2018-02-09T01:05:11.082Z,0
2018-02-09T01:06:20.828Z,0
2018-02-09T01:07:30.772Z,0
2018-02-09T01:08:40.483Z,0
2018-02-09T01:09:50.164Z,0
2018-02-09T01:11:00.111Z,0
2018-02-09T01:12:10.058Z,0
2018-02-09T01:13:19.738Z,0
2018-02-09T01:14:29.678Z,0
2018-02-09T01:15:39.637Z,0
2018-02-09T01:16:49.578Z,0
2018-02-09T01:17:59.520Z,0
2018-02-09T01:19:09.457Z,0
2018-02-09T01:20:19.147Z,0
2018-02-09T01:21:29.098Z,0
2018-02-09T01:22:39.038Z,0
2018-02-09T01:23:48.975Z,0
2018-02-09T01:24:58.907Z,0
2018-02-09T01:26:08.847Z,0
2018-02-09T01:27:18.778Z,0
2018-02-09T01:28:28.754Z,0
2018-02-09T01:29:38.704Z,0
2018-02-09T01:30:48.634Z,0
2018-02-09T01:31:58.310Z,0
2018-02-09T01:33:08.249Z,0
2018-02-09T01:34:18.253Z,0
2018-02-09T01:35:28.196Z,0
2018-02-09T01:36:38.144Z,0
2018-02-09T01:37:48.094Z,0
2018-02-09T01:38:58.038Z,0
2018-02-09T01:40:07.970Z,0
2018-02-09T01:41:17.909Z,0
2018-02-09T01:42:27.843Z,0
2018-02-09T01:43:37.527Z,0
2018-02-09T01:44:47.462Z,0
2018-02-09T01:45:57.405Z,0
2018-02-09T01:47:07.347Z,0
2018-02-09T01:48:17.311Z,0
2018-02-09T01:49:27.255Z,0
2018-02-09T01:50:37.200Z,0
2018-02-09T01:51:47.138Z,0
2018-02-09T01:52:57.079Z,0
2018-02-09T01:54:07.011Z,0
2018-02-09T01:55:16.955Z,0
2018-02-09T01:56:26.643Z,0
2018-02-09T01:57:36.327Z,0
2018-02-09T01:58:46.264Z,0
2018-02-09T01:59:56.198Z,0
2018-02-09T02:01:06.137Z,0
2018-02-09T02:02:16.084Z,0
2018-02-09T02:03:26.031Z,0
2018-02-09T02:04:35.737Z,0
2018-02-09T02:05:45.694Z,0
2018-02-09T02:06:55.424Z,0
2018-02-09T02:08:05.372Z,0
2018-02-09T02:09:15.330Z,0
2018-02-09T02:10:25.024Z,0
2018-02-09T02:11:34.969Z,0
2018-02-09T02:12:44.902Z,0
2018-02-09T02:13:54.833Z,0
2018-02-09T02:15:04.530Z,0
2018-02-09T02:16:14.474Z,0
2018-02-09T02:17:24.166Z,0
2018-02-09T02:18:33.848Z,0
2018-02-09T02:19:43.790Z,0
2018-02-09T02:20:53.734Z,0
2018-02-09T02:22:03.668Z,0
2018-02-09T02:23:13.608Z,0
2018-02-09T02:24:23.543Z,0
2018-02-09T02:25:33.228Z,0
2018-02-09T02:26:42.899Z,0
2018-02-09T02:27:52.858Z,0
2018-02-09T02:29:02.554Z,0
2018-02-09T02:30:12.246Z,0
2018-02-09T02:31:22.390Z,0
2018-02-09T02:32:32.336Z,0
2018-02-09T02:33:42.282Z,0
2018-02-09T02:34:52.236Z,0
2018-02-09T02:36:02.228Z,0
2018-02-09T02:37:12.174Z,0
2018-02-09T02:38:21.868Z,0
2018-02-09T02:39:31.568Z,0
2018-02-09T02:40:41.502Z,0
2018-02-09T02:41:51.450Z,0
2018-02-09T02:43:01.386Z,0
2018-02-09T02:44:11.352Z,0
2018-02-09T02:45:21.293Z,0
2018-02-09T02:46:31.236Z,0
2018-02-09T02:47:40.665Z,0
2018-02-09T02:48:50.347Z,0
2018-02-09T02:50:00.285Z,0
2018-02-09T02:51:10.278Z,0
2018-02-09T02:52:19.965Z,0
2018-02-09T02:53:29.908Z,0
2018-02-09T02:54:39.864Z,0
2018-02-09T02:55:49.811Z,0
2018-02-09T02:56:59.758Z,0
2018-02-09T02:58:09.707Z,0
2018-02-09T02:59:19.647Z,0
2018-02-09T03:00:29.580Z,0
2018-02-09T03:01:39.281Z,0
2018-02-09T03:02:49.212Z,0
2018-02-09T03:03:59.150Z,0
2018-02-09T03:05:09.090Z,0
2018-02-09T03:06:19.035Z,0
2018-02-09T03:07:28.976Z,0
2018-02-09T03:08:38.655Z,0
2018-02-09T03:09:48.345Z,0
2018-02-09T03:10:58.330Z,0
2018-02-09T03:12:08.272Z,0
2018-02-09T03:13:18.203Z,0
2018-02-09T03:14:28.156Z,0
2018-02-09T03:15:38.098Z,0
2018-02-09T03:16:47.781Z,0
2018-02-09T03:17:57.743Z,0
2018-02-09T03:19:07.425Z,0
2018-02-09T03:20:17.359Z,0
2018-02-09T03:21:27.046Z,0
2018-02-09T03:22:36.993Z,0
2018-02-09T03:23:46.932Z,0
2018-02-09T03:24:56.879Z,0
2018-02-09T03:26:06.813Z,0
2018-02-09T03:27:16.488Z,0
2018-02-09T03:28:26.428Z,0
2018-02-09T03:29:36.376Z,0
2018-02-09T03:30:46.380Z,0
2018-02-09T03:31:56.320Z,0
2018-02-09T03:33:06.256Z,0
2018-02-09T03:34:16.199Z,0
2018-02-09T03:35:26.130Z,0
2018-02-09T03:36:35.820Z,0
2018-02-09T03:37:45.769Z,0
2018-02-09T03:38:55.459Z,0
2018-02-09T03:40:05.390Z,0
2018-02-09T03:41:15.569Z,0
2018-02-09T03:42:25.032Z,0
2018-02-09T03:43:34.976Z,0
2018-02-09T03:44:44.903Z,0
2018-02-09T03:45:54.850Z,0
2018-02-09T03:47:04.785Z,0
2018-02-09T03:48:14.480Z,0
2018-02-09T03:49:24.420Z,0
2018-02-09T03:50:34.366Z,0
2018-02-09T03:51:44.037Z,0
2018-02-09T03:52:53.967Z,0
2018-02-09T03:54:03.917Z,0
2018-02-09T03:55:13.851Z,0
2018-02-09T03:56:23.784Z,0
2018-02-09T03:57:33.476Z,0
2018-02-09T03:58:43.425Z,0
2018-02-09T03:59:53.122Z,0
2018-02-09T04:01:02.797Z,0
2018-02-09T04:02:12.738Z,0
2018-02-09T04:03:22.676Z,0
2018-02-09T04:04:32.624Z,0
2018-02-09T04:05:42.570Z,0
2018-02-09T04:06:52.517Z,0
2018-02-09T04:08:02.194Z,0
2018-02-09T04:09:12.129Z,0
2018-02-09T04:10:22.063Z,0
2018-02-09T04:11:31.995Z,0
2018-02-09T04:12:41.943Z,0
2018-02-09T04:13:51.622Z,0
2018-02-09T04:15:01.552Z,0
2018-02-09T04:16:11.488Z,0
2018-02-09T04:17:21.426Z,0
2018-02-09T04:18:31.369Z,0
2018-02-09T04:19:41.320Z,0
2018-02-09T04:20:51.264Z,0
2018-02-09T04:22:01.207Z,0
2018-02-09T04:23:11.251Z,0
2018-02-09T04:24:20.928Z,0
2018-02-09T04:25:30.861Z,0
2018-02-09T04:26:40.815Z,0
2018-02-09T04:27:50.510Z,0
2018-02-09T04:29:00.192Z,0
2018-02-09T04:30:10.134Z,0
2018-02-09T04:31:19.847Z,0
2018-02-09T04:32:29.880Z,0
2018-02-09T04:33:39.819Z,0
2018-02-09T04:34:49.757Z,0
2018-02-09T04:35:59.700Z,0
2018-02-09T04:37:09.638Z,0
2018-02-09T04:38:19.070Z,0
2018-02-09T04:39:28.752Z,0
2018-02-09T04:40:38.690Z,0
2018-02-09T04:41:48.631Z,0
2018-02-09T04:42:58.567Z,0
2018-02-09T04:44:08.509Z,0
2018-02-09T04:45:18.447Z,0
2018-02-09T04:46:28.600Z,0
2018-02-09T04:47:38.293Z,0
2018-02-09T04:48:48.297Z,0
2018-02-09T04:49:58.237Z,0
2018-02-09T04:51:07.923Z,0
2018-02-09T04:52:17.599Z,0
2018-02-09T04:53:27.275Z,0
2018-02-09T04:54:37.207Z,0
2018-02-09T04:55:47.144Z,0
2018-02-09T04:56:57.079Z,0
2018-02-09T04:58:07.072Z,0
2018-02-09T04:59:16.504Z,0
2018-02-09T05:00:26.446Z,0
2018-02-09T05:01:36.149Z,0
2018-02-09T05:02:46.089Z,0
2018-02-09T05:03:55.502Z,0
2018-02-09T05:05:05.446Z,0
2018-02-09T05:06:15.146Z,0
2018-02-09T05:07:25.093Z,0
2018-02-09T05:08:35.028Z,0
2018-02-09T05:09:44.974Z,0
2018-02-09T05:10:54.908Z,0
2018-02-09T05:12:04.600Z,0
2018-02-09T05:13:14.559Z,0
2018-02-09T05:14:24.245Z,0
2018-02-09T05:15:34.177Z,0
2018-02-09T05:16:44.357Z,0
2018-02-09T05:17:54.291Z,0
2018-02-09T05:19:03.964Z,0
2018-02-09T05:20:13.646Z,0
2018-02-09T05:21:23.323Z,0
2018-02-09T05:22:33.260Z,0
2018-02-09T05:23:42.947Z,0
2018-02-09T05:24:52.899Z,0
2018-02-09T05:26:02.594Z,0
2018-02-09T05:27:12.293Z,0
2018-02-09T05:28:22.232Z,0
2018-02-09T05:29:32.160Z,0
2018-02-09T05:30:41.857Z,0
2018-02-09T05:31:51.816Z,0
2018-02-09T05:33:01.780Z,0
2018-02-09T05:34:11.262Z,0
2018-02-09T05:35:21.210Z,0
2018-02-09T05:36:31.158Z,0
2018-02-09T05:37:41.118Z,0
2018-02-09T05:38:51.067Z,0
2018-02-09T05:40:01.041Z,0
2018-02-09T05:41:10.980Z,0
2018-02-09T05:42:20.666Z,0
2018-02-09T05:43:30.089Z,0
2018-02-09T05:44:39.780Z,0
2018-02-09T05:45:49.731Z,0
2018-02-09T05:46:59.675Z,0
2018-02-09T05:48:09.646Z,0
2018-02-09T05:49:19.374Z,0
2018-02-09T05:50:29.317Z,0
2018-02-09T05:51:39.262Z,0
2018-02-09T05:52:48.950Z,0
2018-02-09T05:53:58.648Z,0
2018-02-09T05:55:08.386Z,0
2018-02-09T05:56:18.325Z,0
2018-02-09T05:57:28.259Z,0
2018-02-09T05:58:38.210Z,0
2018-02-09T05:59:48.173Z,0
2018-02-09T06:00:57.854Z,4
2018-02-09T06:02:07.811Z,4
2018-02-09T06:03:17.501Z,0
2018-02-09T06:04:27.450Z,4
2018-02-09T06:05:37.388Z,4
2018-02-09T06:06:47.349Z,4
2018-02-09T06:07:56.789Z,4
2018-02-09T06:09:06.751Z,8
2018-02-09T06:10:16.442Z,8
2018-02-09T06:11:26.419Z,12
2018-02-09T06:12:36.378Z,16
2018-02-09T06:13:46.360Z,16
2018-02-09T06:14:56.298Z,24
2018-02-09T06:16:06.243Z,28
2018-02-09T06:17:16.187Z,32
2018-02-09T06:18:25.870Z,36
2018-02-09T06:19:35.822Z,44
2018-02-09T06:20:45.782Z,48
2018-02-09T06:21:55.477Z,60
2018-02-09T06:23:05.151Z,64
2018-02-09T06:24:14.843Z,80
2018-02-09T06:25:24.521Z,92
2018-02-09T06:26:34.221Z,108
2018-02-09T06:27:43.904Z,116
2018-02-09T06:28:53.840Z,132
2018-02-09T06:30:03.778Z,148
2018-02-09T06:31:13.720Z,164
2018-02-09T06:32:23.665Z,188
2018-02-09T06:33:33.612Z,208
2018-02-09T06:34:43.607Z,228
2018-02-09T06:35:53.363Z,248
2018-02-09T06:37:03.330Z,272
2018-02-09T06:38:13.014Z,300
2018-02-09T06:39:22.717Z,324
2018-02-09T06:40:32.398Z,348
2018-02-09T06:41:42.341Z,384
2018-02-09T06:42:52.282Z,416
2018-02-09T06:44:01.970Z,456
2018-02-09T06:45:11.914Z,508
2018-02-09T06:46:21.603Z,580
2018-02-09T06:47:31.571Z,640
2018-02-09T06:48:41.516Z,700
2018-02-09T06:49:51.459Z,744
2018-02-09T06:51:01.404Z,800
2018-02-09T06:52:11.085Z,836
2018-02-09T06:53:20.767Z,868
2018-02-09T06:54:30.720Z,904
2018-02-09T06:55:40.654Z,944
2018-02-09T06:56:50.348Z,980
2018-02-09T06:58:00.297Z,1020
2018-02-09T06:59:09.997Z,1052
2018-02-09T07:00:19.933Z,1084
2018-02-09T07:01:29.874Z,1124
2018-02-09T07:02:39.817Z,1168
2018-02-09T07:03:49.762Z,1208
2018-02-09T07:04:59.696Z,1240
2018-02-09T07:06:09.644Z,1268
2018-02-09T07:07:19.584Z,1308
2018-02-09T07:08:29.543Z,1344
2018-02-09T07:09:39.234Z,1376
2018-02-09T07:10:49.180Z,1404
2018-02-09T07:11:59.123Z,1440
2018-02-09T07:13:09.089Z,1492
2018-02-09T07:14:19.091Z,1572
2018-02-09T07:15:29.053Z,1644
2018-02-09T07:16:38.747Z,1696
2018-02-09T07:17:48.455Z,1732
2018-02-09T07:18:58.391Z,1764
2018-02-09T07:20:08.328Z,1796
2018-02-09T07:21:17.752Z,1852
2018-02-09T07:22:27.702Z,1904
2018-02-09T07:23:37.641Z,1940
2018-02-09T07:24:47.324Z,2000
2018-02-09T07:25:57.268Z,2084
2018-02-09T07:27:07.203Z,2148
2018-02-09T07:28:17.151Z,2220
2018-02-09T07:29:27.095Z,2280
2018-02-09T07:30:36.782Z,2312
2018-02-09T07:31:46.469Z,2332
2018-02-09T07:32:56.523Z,2340
2018-02-09T07:34:06.462Z,2336
2018-02-09T07:35:16.194Z,2368
2018-02-09T07:36:26.128Z,2452
2018-02-09T07:37:36.074Z,2568
2018-02-09T07:38:45.763Z,2668
2018-02-09T07:39:55.704Z,2708
2018-02-09T07:41:05.139Z,2760
2018-02-09T07:42:15.093Z,2884
2018-02-09T07:43:25.043Z,3052
2018-02-09T07:44:34.730Z,3140
2018-02-09T07:45:44.680Z,3200
2018-02-09T07:46:54.642Z,3204
2018-02-09T07:48:04.584Z,3216
2018-02-09T07:49:14.548Z,3220
2018-02-09T07:50:24.526Z,3268
2018-02-09T07:51:34.202Z,3348
2018-02-09T07:52:43.883Z,3464
2018-02-09T07:53:53.817Z,3648
2018-02-09T07:55:03.782Z,3884
2018-02-09T07:56:13.730Z,4084
2018-02-09T07:57:23.672Z,4240
2018-02-09T07:58:33.383Z,4332
2018-02-09T07:59:43.330Z,4532
2018-02-09T08:00:53.289Z,4696
2018-02-09T08:02:03.245Z,4792
2018-02-09T08:03:12.934Z,4920
2018-02-09T08:04:22.633Z,5260
2018-02-09T08:05:32.322Z,5696
2018-02-09T08:06:42.013Z,6220
2018-02-09T08:07:51.960Z,6612
2018-02-09T08:09:01.907Z,6720
2018-02-09T08:10:11.595Z,6824
2018-02-09T08:11:21.556Z,7168
2018-02-09T08:12:31.508Z,7820
2018-02-09T08:13:41.451Z,8308
2018-02-09T08:14:51.139Z,8340
2018-02-09T08:16:01.082Z,8344
2018-02-09T08:17:10.762Z,8224
2018-02-09T08:18:20.746Z,8380
2018-02-09T08:19:30.179Z,8776
2018-02-09T08:20:40.108Z,9100
2018-02-09T08:21:50.059Z,9356
2018-02-09T08:22:59.995Z,9628
2018-02-09T08:24:09.930Z,10056
2018-02-09T08:25:19.881Z,10748
2018-02-09T08:26:29.820Z,11072
2018-02-09T08:27:39.770Z,11124
2018-02-09T08:28:49.469Z,11952
2018-02-09T08:29:59.189Z,11568
2018-02-09T08:31:08.877Z,11952
2018-02-09T08:32:18.827Z,12208
2018-02-09T08:33:28.773Z,12020
2018-02-09T08:34:38.201Z,12320
2018-02-09T08:35:48.141Z,11492
2018-02-09T08:36:57.836Z,12356
2018-02-09T08:38:07.785Z,12884
2018-02-09T08:39:17.754Z,12856
2018-02-09T08:40:27.707Z,12828
2018-02-09T08:41:37.411Z,12472
2018-02-09T08:42:47.356Z,11816
2018-02-09T08:43:57.298Z,11592
2018-02-09T08:45:07.267Z,12500
2018-02-09T08:46:16.978Z,14420
2018-02-09T08:47:26.665Z,15232
2018-02-09T08:48:36.616Z,15612
2018-02-09T08:49:46.593Z,16320
2018-02-09T08:50:56.802Z,17824
2018-02-09T08:52:06.853Z,21984
2018-02-09T08:53:16.805Z,24256
2018-02-09T08:54:26.783Z,25344
2018-02-09T08:55:36.736Z,26272
2018-02-09T08:56:46.476Z,25568
2018-02-09T08:57:56.511Z,24640
2018-02-09T08:59:06.474Z,24032
2018-02-09T09:00:16.205Z,23136
2018-02-09T09:01:26.365Z,22848
2018-02-09T09:02:36.332Z,23872
2018-02-09T09:03:46.031Z,24512
2018-02-09T09:04:55.997Z,24128
2018-02-09T09:06:05.701Z,25184
2018-02-09T09:07:15.665Z,25792
2018-02-09T09:08:25.635Z,26368
2018-02-09T09:09:35.356Z,26688
2018-02-09T09:10:45.303Z,26016
2018-02-09T09:11:55.025Z,25024
2018-02-09T09:13:05.257Z,25760
2018-02-09T09:14:15.207Z,26368
2018-02-09T09:15:25.171Z,26336
2018-02-09T09:16:34.883Z,27584
2018-02-09T09:17:44.838Z,27776
2018-02-09T09:18:54.787Z,28768
2018-02-09T09:20:04.521Z,28896
2018-02-09T09:21:14.475Z,28160
2018-02-09T09:22:23.923Z,29088
2018-02-09T09:23:33.624Z,29280
2018-02-09T09:24:43.593Z,29920
2018-02-09T09:25:53.558Z,30656
2018-02-09T09:27:03.536Z,31584
2018-02-09T09:28:13.288Z,30112
2018-02-09T09:29:23.016Z,29120
2018-02-09T09:30:32.988Z,30400
2018-02-09T09:31:42.683Z,31296
2018-02-09T09:32:52.694Z,32096
2018-02-09T09:34:02.729Z,34304
2018-02-09T09:35:12.676Z,35072
2018-02-09T09:36:22.655Z,35296
2018-02-09T09:37:32.627Z,34656
2018-02-09T09:38:42.614Z,35680
2018-02-09T09:39:51.791Z,35776
2018-02-09T09:41:01.241Z,36448
2018-02-09T09:42:11.192Z,35872
2018-02-09T09:43:21.138Z,36160
2018-02-09T09:44:31.086Z,36768
2018-02-09T09:45:41.041Z,37632
2018-02-09T09:46:50.725Z,38464
2018-02-09T09:48:00.684Z,39072
2018-02-09T09:49:10.640Z,41056
2018-02-09T09:50:20.600Z,40800
2018-02-09T09:51:30.566Z,40800
2018-02-09T09:52:40.517Z,42784
2018-02-09T09:53:50.498Z,42944
2018-02-09T09:54:59.929Z,43328
2018-02-09T09:56:09.883Z,42912
2018-02-09T09:57:19.830Z,40608
2018-02-09T09:58:29.798Z,41984
2018-02-09T09:59:39.745Z,43008
2018-02-09T10:00:49.687Z,43136
2018-02-09T10:01:59.640Z,43520
2018-02-09T10:03:09.333Z,43904
2018-02-09T10:04:19.312Z,44448
2018-02-09T10:05:29.026Z,44288
2018-02-09T10:06:38.987Z,45120
2018-02-09T10:07:48.675Z,44640
2018-02-09T10:08:58.367Z,45248
2018-02-09T10:10:08.317Z,47232
2018-02-09T10:11:18.294Z,48672
2018-02-09T10:12:28.241Z,50400
2018-02-09T10:13:37.998Z,49568
2018-02-09T10:14:47.952Z,48256
2018-02-09T10:15:57.895Z,51136
2018-02-09T10:17:07.842Z,51488
2018-02-09T10:18:17.534Z,51392
2018-02-09T10:19:27.230Z,54080
2018-02-09T10:20:36.931Z,53664
2018-02-09T10:21:46.884Z,53056
2018-02-09T10:22:56.589Z,54656
2018-02-09T10:24:06.575Z,54496
2018-02-09T10:25:16.114Z,53632
2018-02-09T10:26:26.089Z,53152
2018-02-09T10:27:36.073Z,53760
2018-02-09T10:28:46.037Z,56192
2018-02-09T10:29:56.010Z,56896
2018-02-09T10:31:05.949Z,55040
2018-02-09T10:32:15.642Z,56480
2018-02-09T10:33:25.658Z,56960
2018-02-09T10:34:35.606Z,58592
2018-02-09T10:35:45.299Z,60256
2018-02-09T10:36:55.246Z,61632
2018-02-09T10:38:04.982Z,60256
2018-02-09T10:39:14.685Z,60192
2018-02-09T10:40:24.632Z,60288
2018-02-09T10:41:34.344Z,57440
2018-02-09T10:42:44.293Z,59072
2018-02-09T10:43:54.235Z,59456
2018-02-09T10:45:04.184Z,59712
2018-02-09T10:46:13.872Z,56736
2018-02-09T10:47:23.301Z,57728
2018-02-09T10:48:32.996Z,51296
2018-02-09T10:49:42.942Z,47776
2018-02-09T10:50:52.642Z,49568
2018-02-09T10:52:02.626Z,33984
2018-02-09T10:53:12.350Z,27296
2018-02-09T10:54:22.301Z,24064
2018-02-09T10:55:32.268Z,20736
2018-02-09T10:56:42.368Z,20576
2018-02-09T10:57:52.318Z,21088
2018-02-09T10:59:02.011Z,20992
2018-02-09T11:00:11.980Z,20352
2018-02-09T11:01:21.944Z,19392
2018-02-09T11:02:31.889Z,18592
2018-02-09T11:03:41.849Z,18304
2018-02-09T11:04:51.294Z,18272
2018-02-09T11:06:01.280Z,18048
2018-02-09T11:07:11.267Z,18176
2018-02-09T11:08:21.004Z,18560
2018-02-09T11:09:30.960Z,19040
2018-02-09T11:10:40.673Z,19232
2018-02-09T11:11:50.643Z,19840
2018-02-09T11:13:00.602Z,20672
2018-02-09T11:14:10.378Z,21280
2018-02-09T11:15:20.098Z,21792
2018-02-09T11:16:30.060Z,22176
2018-02-09T11:17:40.005Z,22272
2018-02-09T11:18:49.978Z,22112
2018-02-09T11:19:59.672Z,22272
2018-02-09T11:21:09.370Z,21824
2018-02-09T11:22:19.350Z,21376
2018-02-09T11:23:29.341Z,21376
2018-02-09T11:24:39.321Z,21888
2018-02-09T11:25:49.262Z,23232
2018-02-09T11:26:59.248Z,24768
2018-02-09T11:28:09.224Z,27200
2018-02-09T11:29:18.917Z,28672
2018-02-09T11:30:28.612Z,28608
2018-02-09T11:31:38.582Z,28512
2018-02-09T11:32:48.303Z,27616
2018-02-09T11:33:58.250Z,28416
2018-02-09T11:35:07.950Z,28096
2018-02-09T11:36:17.721Z,28896
2018-02-09T11:37:27.441Z,28864
2018-02-09T11:38:37.143Z,29696
2018-02-09T11:39:47.145Z,31840
2018-02-09T11:40:57.107Z,32928
2018-02-09T11:42:07.095Z,36000
2018-02-09T11:43:17.050Z,37024
2018-02-09T11:44:27.038Z,38816
2018-02-09T11:45:36.761Z,38560
2018-02-09T11:46:46.710Z,47232
2018-02-09T11:47:56.667Z,49856
2018-02-09T11:49:06.625Z,59968
2018-02-09T11:50:16.586Z,52864
2018-02-09T11:51:26.028Z,37920
2018-02-09T11:52:35.739Z,38048
2018-02-09T11:53:45.477Z,36736
2018-02-09T11:54:55.217Z,36352
2018-02-09T11:56:05.201Z,35200
2018-02-09T11:57:15.154Z,41280
2018-02-09T11:58:25.119Z,33824
2018-02-09T11:59:35.357Z,33120
2018-02-09T12:00:45.103Z,33728
2018-02-09T12:01:54.805Z,38624
2018-02-09T12:03:04.510Z,29024
2018-02-09T12:04:14.501Z,26240
2018-02-09T12:05:23.939Z,26016
2018-02-09T12:06:33.906Z,26624
2018-02-09T12:07:43.852Z,29856
2018-02-09T12:08:53.833Z,27232
2018-02-09T12:10:03.804Z,26272
2018-02-09T12:11:13.514Z,25024
2018-02-09T12:12:23.482Z,24256
2018-02-09T12:13:33.435Z,23872
2018-02-09T12:14:43.379Z,23040
2018-02-09T12:15:53.352Z,21664
2018-02-09T12:17:03.293Z,20608
2018-02-09T12:18:13.011Z,20448
2018-02-09T12:19:22.960Z,20416
2018-02-09T12:20:32.905Z,20800
2018-02-09T12:21:42.642Z,21248
2018-02-09T12:22:52.644Z,21088
2018-02-09T12:24:02.598Z,20672
2018-02-09T12:25:12.575Z,20832
2018-02-09T12:26:22.539Z,21024
2018-02-09T12:27:32.504Z,20992
2018-02-09T12:28:42.218Z,20576
2018-02-09T12:29:52.166Z,20320
2018-02-09T12:31:02.145Z,21024
2018-02-09T12:32:11.862Z,22272
2018-02-09T12:33:21.833Z,23264
2018-02-09T12:34:31.566Z,23520
2018-02-09T12:35:41.527Z,25696
2018-02-09T12:36:51.217Z,31072
2018-02-09T12:38:01.189Z,40672
2018-02-09T12:39:10.921Z,75584
2018-02-09T12:40:20.915Z,75296
2018-02-09T12:41:30.861Z,68480
2018-02-09T12:42:40.814Z,45152
2018-02-09T12:43:50.512Z,61888
2018-02-09T12:44:59.948Z,61440
2018-02-09T12:46:09.899Z,69312
2018-02-09T12:47:19.616Z,69088
2018-02-09T12:48:29.565Z,71392
2018-02-09T12:49:39.520Z,71104
2018-02-09T12:50:49.229Z,66560
2018-02-09T12:51:59.178Z,65472
2018-02-09T12:53:09.130Z,68032
2018-02-09T12:54:19.091Z,69472
2018-02-09T12:55:28.537Z,66432
2018-02-09T12:56:38.517Z,66368
2018-02-09T12:57:48.223Z,67232
2018-02-09T12:58:57.944Z,64480
2018-02-09T13:00:07.900Z,65536
2018-02-09T13:01:17.602Z,69952
2018-02-09T13:02:27.304Z,70624
2018-02-09T13:03:36.737Z,70016
2018-02-09T13:04:46.427Z,66784
2018-02-09T13:05:56.368Z,67360
2018-02-09T13:07:06.388Z,61312
2018-02-09T13:08:16.147Z,61120
2018-02-09T13:09:26.164Z,61088
2018-02-09T13:10:35.861Z,62784
2018-02-09T13:11:45.556Z,62272
2018-02-09T13:12:55.520Z,53216
2018-02-09T13:14:05.485Z,64480
2018-02-09T13:15:15.436Z,68288
2018-02-09T13:16:25.394Z,69888
2018-02-09T13:17:35.359Z,65472
2018-02-09T13:18:45.339Z,63136
2018-02-09T13:19:55.305Z,66752
2018-02-09T13:21:05.004Z,66016
2018-02-09T13:22:14.958Z,63520
2018-02-09T13:23:24.924Z,65408
2018-02-09T13:24:34.877Z,64576
2018-02-09T13:25:44.834Z,65152
2018-02-09T13:26:54.800Z,61824
2018-02-09T13:28:04.773Z,57248
2018-02-09T13:29:14.489Z,59680
2018-02-09T13:30:24.438Z,61408
2018-02-09T13:31:34.384Z,63232
2018-02-09T13:32:44.363Z,62560
2018-02-09T13:33:54.327Z,62624
2018-02-09T13:35:04.285Z,62400
2018-02-09T13:36:13.723Z,62720
2018-02-09T13:37:23.426Z,64512
2018-02-09T13:38:33.389Z,69376
2018-02-09T13:39:43.092Z,65632
2018-02-09T13:40:53.060Z,60928
2018-02-09T13:42:03.012Z,63776
2018-02-09T13:43:12.716Z,62272
2018-02-09T13:44:22.658Z,52704
2018-02-09T13:45:32.614Z,51488
2018-02-09T13:46:42.569Z,51648
2018-02-09T13:47:52.530Z,48384
2018-02-09T13:49:02.533Z,47200
2018-02-09T13:50:12.538Z,51840
2018-02-09T13:51:22.501Z,50784
2018-02-09T13:52:32.214Z,49248
2018-02-09T13:53:42.174Z,52128
2018-02-09T13:54:52.146Z,51584
2018-02-09T13:56:01.860Z,48640
2018-02-09T13:57:11.820Z,49888
2018-02-09T13:58:21.806Z,49312
2018-02-09T13:59:31.784Z,50048
2018-02-09T14:00:41.747Z,49984
2018-02-09T14:01:51.519Z,48256
2018-02-09T14:03:01.473Z,46432
2018-02-09T14:04:11.185Z,44480
2018-02-09T14:05:21.156Z,46400
2018-02-09T14:06:30.346Z,44480
2018-02-09T14:07:40.046Z,45824
2018-02-09T14:08:50.005Z,47776
2018-02-09T14:09:59.968Z,44320
2018-02-09T14:11:09.926Z,43552
2018-02-09T14:12:19.413Z,45088
2018-02-09T14:13:29.126Z,44224
2018-02-09T14:14:39.084Z,42080
2018-02-09T14:15:49.063Z,42912
2018-02-09T14:16:59.021Z,42016
2018-02-09T14:18:08.981Z,38752
2018-02-09T14:19:18.943Z,38208
2018-02-09T14:20:28.654Z,39680
2018-02-09T14:21:38.606Z,39776
2018-02-09T14:22:48.587Z,37568
2018-02-09T14:23:58.276Z,36800
2018-02-09T14:25:07.982Z,36160
2018-02-09T14:26:17.933Z,30368
2018-02-09T14:27:27.892Z,23872
2018-02-09T14:28:37.592Z,28544
2018-02-09T14:29:47.546Z,31040
2018-02-09T14:30:57.254Z,32096
2018-02-09T14:32:07.205Z,32192
2018-02-09T14:33:16.907Z,31392
2018-02-09T14:34:26.607Z,28256
2018-02-09T14:35:36.566Z,26880
2018-02-09T14:36:46.519Z,28288
2018-02-09T14:37:56.458Z,26528
2018-02-09T14:39:05.912Z,25440
2018-02-09T14:40:15.867Z,24800
2018-02-09T14:41:25.814Z,24800
2018-02-09T14:42:35.790Z,24224
2018-02-09T14:43:45.542Z,20640
2018-02-09T14:44:55.496Z,19712
2018-02-09T14:46:05.445Z,21408
2018-02-09T14:47:15.403Z,21696
2018-02-09T14:48:25.094Z,21056
2018-02-09T14:49:35.032Z,20064
2018-02-09T14:50:44.750Z,18144
2018-02-09T14:51:54.710Z,18016
2018-02-09T14:53:04.420Z,18208
2018-02-09T14:54:14.380Z,17760
2018-02-09T14:55:24.072Z,16352
2018-02-09T14:56:33.524Z,15712
2018-02-09T14:57:43.475Z,13856
2018-02-09T14:58:53.183Z,14048
2018-02-09T15:00:03.138Z,14272
2018-02-09T15:01:13.104Z,13920
2018-02-09T15:02:22.811Z,12800
2018-02-09T15:03:32.755Z,12480
2018-02-09T15:04:42.209Z,12096
2018-02-09T15:05:51.903Z,11552
2018-02-09T15:07:01.598Z,11320
2018-02-09T15:08:11.554Z,11052
2018-02-09T15:09:21.524Z,10416
2018-02-09T15:10:31.210Z,9592
2018-02-09T15:11:40.925Z,9080
2018-02-09T15:12:50.877Z,8416
2018-02-09T15:14:00.828Z,7984
2018-02-09T15:15:10.786Z,7736
2018-02-09T15:16:20.742Z,7392
2018-02-09T15:17:30.687Z,7056
2018-02-09T15:18:40.637Z,6812
2018-02-09T15:19:50.607Z,6864
2018-02-09T15:21:00.294Z,6324
2018-02-09T15:22:10.245Z,5884
2018-02-09T15:23:19.711Z,5696
2018-02-09T15:24:29.483Z,5432
2018-02-09T15:25:39.453Z,5148
2018-02-09T15:26:49.405Z,4884
2018-02-09T15:27:59.358Z,4664
2018-02-09T15:29:09.308Z,4436
2018-02-09T15:30:19.262Z,4204
2018-02-09T15:31:28.975Z,4008
2018-02-09T15:32:38.673Z,3804
2018-02-09T15:33:48.370Z,3608
2018-02-09T15:34:58.317Z,3416
2018-02-09T15:36:08.333Z,3236
2018-02-09T15:37:18.287Z,3072
2018-02-09T15:38:28.290Z,2928
2018-02-09T15:39:38.234Z,2784
2018-02-09T15:40:48.217Z,2628
2018-02-09T15:41:57.901Z,2464
2018-02-09T15:43:07.864Z,2304
2018-02-09T15:44:17.825Z,2160
2018-02-09T15:45:27.787Z,2016
2018-02-09T15:46:37.553Z,1880
2018-02-09T15:47:47.573Z,1732
2018-02-09T15:48:57.283Z,1572
2018-02-09T15:50:07.244Z,1432
2018-02-09T15:51:17.258Z,1336
2018-02-09T15:52:26.947Z,1264
2018-02-09T15:53:36.892Z,1196
2018-02-09T15:54:46.840Z,1128
2018-02-09T15:55:56.805Z,1064